createdAt,value
2018-09-05T00:01:14.781Z,7.90
2018-09-05T00:03:43.191Z,7.37
2018-09-05T00:06:11.414Z,8.03
2018-09-05T00:08:39.640Z,7.57
2018-09-05T00:11:07.845Z,7.53
2018-09-05T00:13:36.001Z,7.87
2018-09-05T00:16:04.131Z,8.23
2018-09-05T00:18:32.989Z,8.27
2018-09-05T00:21:01.123Z,8.50
2018-09-05T00:23:29.254Z,7.70
2018-09-05T00:25:57.411Z,8.17
2018-09-05T00:28:25.667Z,8.57
2018-09-05T00:30:53.783Z,8.10
2018-09-05T00:33:22.175Z,8.50
2018-09-05T00:35:50.554Z,8.63
2018-09-05T00:38:18.745Z,8.40
2018-09-05T00:40:46.899Z,8.80
2018-09-05T00:43:15.033Z,8.73
2018-09-05T00:45:43.210Z,8.87
2018-09-05T00:48:11.415Z,8.80
2018-09-05T00:50:39.539Z,8.17
2018-09-05T00:53:07.669Z,8.83
2018-09-05T00:55:35.794Z,8.80
2018-09-05T00:58:03.952Z,8.80
2018-09-05T01:00:32.049Z,8.80
2018-09-05T01:03:00.453Z,8.90
2018-09-05T01:05:28.551Z,9.03
2018-09-05T01:07:56.693Z,8.97
2018-09-05T01:10:31.746Z,8.97
2018-09-05T01:12:59.885Z,8.90
2018-09-05T01:15:28.037Z,9.03
2018-09-05T01:17:56.352Z,10.20
2018-09-05T01:20:24.584Z,9.40
2018-09-05T01:22:52.833Z,9.87
2018-09-05T01:25:21.017Z,9.73
2018-09-05T01:27:49.213Z,10.17
2018-09-05T01:30:17.329Z,9.40
2018-09-05T01:32:45.477Z,10.47
2018-09-05T01:35:13.657Z,11.17
2018-09-05T01:37:42.357Z,10.43
2018-09-05T01:40:10.574Z,10.50
2018-09-05T01:42:38.826Z,10.23
2018-09-05T01:45:07.067Z,10.30
2018-09-05T01:47:35.245Z,11.07
2018-09-05T01:50:03.585Z,11.20
2018-09-05T01:52:31.800Z,10.17
2018-09-05T01:54:59.997Z,11.23
2018-09-05T01:57:28.185Z,10.67
2018-09-05T01:59:56.377Z,10.80
2018-09-05T02:02:25.653Z,11.70
2018-09-05T02:04:54.513Z,11.50
2018-09-05T02:07:22.807Z,11.60
2018-09-05T02:09:50.959Z,11.27
2018-09-05T02:12:19.103Z,11.37
2018-09-05T02:14:47.229Z,12.23
2018-09-05T02:17:15.385Z,12.17
2018-09-05T02:19:43.556Z,13.10
2018-09-05T02:22:11.726Z,11.77
2018-09-05T02:24:39.985Z,11.97
2018-09-05T02:27:08.521Z,12.60
2018-09-05T02:29:36.657Z,12.80
2018-09-05T02:32:04.890Z,13.17
2018-09-05T02:34:33.015Z,16.30
2018-09-05T02:37:01.216Z,15.40
2018-09-05T02:39:29.459Z,19.03
2018-09-05T02:41:57.794Z,18.97
2018-09-05T02:44:26.010Z,20.20
2018-09-05T02:46:54.205Z,21.67
2018-09-05T02:49:22.432Z,22.23
2018-09-05T02:51:50.659Z,22.07
2018-09-05T02:54:18.938Z,23.90
2018-09-05T02:56:47.207Z,22.37
2018-09-05T02:59:15.367Z,24.27
2018-09-05T03:01:43.540Z,25.27
2018-09-05T03:04:11.918Z,22.97
2018-09-05T03:06:40.095Z,24.20
2018-09-05T03:09:08.874Z,24.87
2018-09-05T03:11:37.160Z,25.83
2018-09-05T03:14:06.160Z,26.53
2018-09-05T03:16:34.296Z,28.90
2018-09-05T03:19:04.108Z,27.90
2018-09-05T03:21:30.722Z,26.60
2018-09-05T03:23:58.871Z,28.67
2018-09-05T03:26:27.122Z,28.90
2018-09-05T03:28:55.270Z,29.43
2018-09-05T03:31:23.439Z,25.83
2018-09-05T03:33:51.882Z,26.83
2018-09-05T03:36:20.021Z,27.17
2018-09-05T03:38:48.385Z,26.83
2018-09-05T03:41:16.517Z,29.73
2018-09-05T03:43:44.676Z,26.20
2018-09-05T03:46:12.846Z,27.90
2018-09-05T03:48:41.003Z,28.73
2018-09-05T03:51:09.133Z,27.77
2018-09-05T03:53:37.309Z,29.80
2018-09-05T03:56:05.527Z,28.77
2018-09-05T03:58:33.734Z,29.00
2018-09-05T04:01:01.875Z,27.73
2018-09-05T04:03:30.136Z,29.27
2018-09-05T04:05:58.254Z,28.67
2018-09-05T04:08:26.494Z,27.80
2018-09-05T04:10:54.677Z,29.47
2018-09-05T04:13:22.843Z,29.17
2018-09-05T04:15:51.229Z,29.23
2018-09-05T04:18:19.532Z,27.60
2018-09-05T04:20:47.664Z,28.20
2018-09-05T04:23:18.888Z,29.73
2018-09-05T04:25:47.045Z,27.33
2018-09-05T04:28:15.399Z,26.97
2018-09-05T04:30:43.570Z,31.17
2018-09-05T04:33:11.924Z,30.77
2018-09-05T04:35:40.244Z,27.90
2018-09-05T04:38:08.467Z,28.40
2018-09-05T04:40:36.614Z,26.07
2018-09-05T04:43:04.828Z,28.10
2018-09-05T04:45:33.149Z,27.57
2018-09-05T04:48:01.400Z,28.23
2018-09-05T04:50:29.575Z,28.17
2018-09-05T04:52:57.729Z,26.20
2018-09-05T04:55:25.997Z,26.50
2018-09-05T04:57:54.211Z,26.87
2018-09-05T05:00:22.435Z,26.97
2018-09-05T05:02:50.698Z,26.10
2018-09-05T05:05:18.937Z,26.40
2018-09-05T05:07:47.256Z,27.10
2018-09-05T05:10:15.433Z,26.57
2018-09-05T05:12:43.653Z,24.37
2018-09-05T05:15:16.067Z,24.00
2018-09-05T05:17:44.217Z,24.43
2018-09-05T05:20:12.507Z,23.83
2018-09-05T05:22:40.707Z,22.87
2018-09-05T05:25:09.023Z,21.43
2018-09-05T05:27:37.467Z,21.53
2018-09-05T05:30:06.199Z,21.93
2018-09-05T05:32:34.787Z,19.13
2018-09-05T05:35:07.123Z,18.80
2018-09-05T05:37:35.401Z,19.97
2018-09-05T05:40:06.158Z,19.53
2018-09-05T05:42:35.229Z,21.20
2018-09-05T05:45:04.364Z,18.77
2018-09-05T05:47:33.362Z,18.93
2018-09-05T05:50:02.189Z,18.70
2018-09-05T05:52:30.819Z,18.73
2018-09-05T05:54:59.509Z,18.57
2018-09-05T05:57:27.791Z,18.27
2018-09-05T05:59:56.732Z,18.33
2018-09-05T06:02:25.296Z,18.03
2018-09-05T06:04:53.590Z,18.07
2018-09-05T06:07:21.863Z,16.23
2018-09-05T06:09:50.078Z,14.70
2018-09-05T06:12:18.345Z,16.07
2018-09-05T06:14:46.540Z,16.27
2018-09-05T06:17:14.839Z,16.60
2018-09-05T06:19:42.999Z,16.03
2018-09-05T06:22:11.253Z,15.73
2018-09-05T06:24:40.312Z,17.00
2018-09-05T06:27:08.785Z,16.43
2018-09-05T06:29:36.955Z,15.87
2018-09-05T06:32:05.274Z,15.50
2018-09-05T06:34:33.558Z,17.60
2018-09-05T06:37:01.843Z,17.47
2018-09-05T06:39:30.426Z,17.03
2018-09-05T06:41:58.654Z,17.23
2018-09-05T06:44:26.893Z,15.60
2018-09-05T06:46:55.107Z,15.47
2018-09-05T06:49:23.427Z,13.27
2018-09-05T06:51:51.713Z,13.30
2018-09-05T06:54:19.831Z,14.40
2018-09-05T06:56:48.065Z,14.17
2018-09-05T06:59:16.505Z,13.60
2018-09-05T07:01:44.731Z,13.80
2018-09-05T07:04:13.309Z,14.37
2018-09-05T07:06:42.013Z,12.93
2018-09-05T07:09:12.473Z,13.03
2018-09-05T07:11:41.245Z,13.60
2018-09-05T07:14:09.594Z,15.37
2018-09-05T07:16:38.576Z,11.03
2018-09-05T07:19:08.325Z,11.20
2018-09-05T07:21:36.824Z,11.30
2018-09-05T07:24:05.159Z,12.00
2018-09-05T07:26:33.635Z,10.33
2018-09-05T07:29:02.021Z,10.37
2018-09-05T07:31:30.613Z,11.53
2018-09-05T07:33:58.994Z,11.07
2018-09-05T07:36:27.243Z,10.57
2018-09-05T07:38:55.436Z,10.50
2018-09-05T07:41:23.649Z,10.83
2018-09-05T07:43:52.111Z,10.80
2018-09-05T07:46:20.382Z,9.87
2018-09-05T07:48:48.638Z,9.17
2018-09-05T07:51:17.625Z,10.30
2018-09-05T07:53:45.938Z,10.63
2018-09-05T07:56:14.057Z,9.97
2018-09-05T07:58:49.027Z,15.57
2018-09-05T08:01:17.238Z,11.73
2018-09-05T08:03:45.339Z,11.17
2018-09-05T08:06:13.806Z,10.03
2018-09-05T08:08:42.003Z,11.10
2018-09-05T08:11:10.274Z,12.10
2018-09-05T08:13:38.460Z,10.57
2018-09-05T08:16:07.286Z,9.60
2018-09-05T08:18:35.674Z,10.50
2018-09-05T08:21:03.872Z,13.80
2018-09-05T08:23:32.097Z,10.23
2018-09-05T08:26:00.333Z,10.17
2018-09-05T08:28:28.607Z,8.67
2018-09-05T08:30:56.837Z,10.33
2018-09-05T08:33:25.064Z,13.00
2018-09-05T08:35:53.752Z,11.87
2018-09-05T08:38:21.917Z,9.80
2018-09-05T08:40:51.013Z,9.67
2018-09-05T08:43:19.260Z,10.80
2018-09-05T08:45:47.671Z,8.33
2018-09-05T08:48:15.936Z,9.47
2018-09-05T08:50:44.066Z,8.67
2018-09-05T08:53:12.968Z,10.27
2018-09-05T08:55:41.774Z,7.93
2018-09-05T08:58:16.775Z,9.37
2018-09-05T09:00:45.638Z,9.80
2018-09-05T09:03:15.633Z,8.63
2018-09-05T09:05:43.887Z,8.43
2018-09-05T09:08:12.475Z,8.27
2018-09-05T09:10:41.002Z,8.43
2018-09-05T09:13:09.985Z,7.10
2018-09-05T09:15:38.229Z,7.73
2018-09-05T09:18:06.771Z,6.67
2018-09-05T09:20:35.077Z,6.23
2018-09-05T09:23:03.373Z,5.73
2018-09-05T09:25:31.745Z,8.13
2018-09-05T09:27:59.964Z,5.50
2018-09-05T09:30:28.395Z,6.47
2018-09-05T09:32:56.575Z,6.07
2018-09-05T09:35:24.734Z,6.97
2018-09-05T09:37:53.035Z,7.10
2018-09-05T09:40:21.324Z,6.93
2018-09-05T09:42:49.531Z,7.63
2018-09-05T09:45:17.659Z,7.90
2018-09-05T09:47:45.807Z,6.33
2018-09-05T09:50:13.998Z,6.47
2018-09-05T09:52:42.129Z,6.10
2018-09-05T09:55:10.295Z,6.37
2018-09-05T09:57:38.826Z,7.60
2018-09-05T10:00:07.706Z,8.13
2018-09-05T10:02:41.068Z,5.93
2018-09-05T10:05:14.604Z,6.47
2018-09-05T10:07:56.759Z,7.57
2018-09-05T10:10:30.310Z,7.93
2018-09-05T10:13:03.871Z,6.73
2018-09-05T10:15:37.379Z,6.27
2018-09-05T10:18:11.209Z,6.57
2018-09-05T10:20:40.901Z,6.53
2018-09-05T10:23:09.157Z,6.77
2018-09-05T10:25:37.409Z,6.17
2018-09-05T10:28:05.876Z,6.90
2018-09-05T10:30:34.325Z,7.03
2018-09-05T10:33:02.665Z,7.07
2018-09-05T10:35:30.846Z,7.30
2018-09-05T10:37:59.215Z,7.03
2018-09-05T10:40:27.381Z,7.43
2018-09-05T15:10:51.137Z,6.80
2018-09-05T15:13:19.311Z,9.03
2018-09-05T15:15:47.735Z,4.90
2018-09-05T15:18:15.043Z,7.60
2018-09-05T15:20:43.253Z,5.03
2018-09-05T15:23:10.570Z,9.73
2018-09-05T15:25:37.799Z,7.87
2018-09-05T15:28:05.053Z,5.87
2018-09-05T15:30:32.375Z,7.23
2018-09-05T15:32:59.614Z,5.50
2018-09-05T15:35:26.890Z,5.70
2018-09-05T15:37:54.108Z,7.33
2018-09-05T15:40:21.317Z,7.40
2018-09-05T15:42:48.619Z,6.20
2018-09-05T15:45:15.880Z,5.63
2018-09-05T15:47:43.951Z,4.80
2018-09-05T15:50:11.396Z,5.03
2018-09-05T15:52:38.656Z,4.93
2018-09-05T15:55:06.606Z,6.37
2018-09-05T15:57:33.910Z,6.43
2018-09-05T16:00:01.109Z,5.07
2018-09-05T16:02:28.384Z,6.07
2018-09-05T16:04:55.608Z,6.33
2018-09-05T16:07:22.832Z,5.63
2018-09-05T16:09:50.143Z,6.77
2018-09-05T16:12:17.366Z,5.47
2018-09-05T16:14:44.702Z,5.53
2018-09-05T16:17:12.010Z,6.87
2018-09-05T16:19:39.350Z,6.03
2018-09-05T16:22:06.975Z,5.73
2018-09-05T16:24:34.329Z,7.30
2018-09-05T16:27:01.688Z,5.00
2018-09-05T16:29:29.146Z,5.30
2018-09-05T16:31:56.439Z,5.23
2018-09-05T16:34:23.740Z,4.67
2018-09-05T16:36:51.047Z,4.87
2018-09-05T16:39:18.339Z,6.73
2018-09-05T16:41:45.611Z,7.40
2018-09-05T16:44:12.850Z,10.37
2018-09-05T16:46:40.161Z,6.50
2018-09-05T16:49:07.390Z,5.97
2018-09-05T16:51:34.744Z,6.13
2018-09-05T16:54:02.684Z,7.00
2018-09-05T16:56:30.260Z,5.23
2018-09-05T16:58:57.475Z,5.60
2018-09-05T17:01:25.511Z,5.67
2018-09-05T17:03:52.752Z,5.80
2018-09-05T17:06:20.020Z,5.00
2018-09-05T17:08:47.418Z,5.73
2018-09-05T17:11:14.734Z,5.27
2018-09-05T17:13:41.946Z,5.53
2018-09-05T17:16:09.359Z,6.07
2018-09-05T17:18:36.613Z,5.53
2018-09-05T17:21:03.961Z,7.13
2018-09-05T17:23:31.247Z,8.67
2018-09-05T17:25:58.572Z,6.67
2018-09-05T17:28:25.909Z,12.43
2018-09-05T17:30:53.145Z,6.43
2018-09-05T17:33:20.369Z,6.43
2018-09-05T17:35:47.605Z,7.47
2018-09-05T17:38:14.871Z,10.47
2018-09-05T17:40:42.128Z,6.83
2018-09-05T17:43:09.400Z,6.73
2018-09-05T17:45:36.715Z,6.93
2018-09-05T17:48:04.083Z,7.07
2018-09-05T17:50:31.339Z,5.27
2018-09-05T17:52:58.620Z,6.47
2018-09-05T17:55:26.008Z,7.47
2018-09-05T17:57:54.942Z,6.63
2018-09-05T18:00:22.152Z,5.90
2018-09-05T18:02:49.502Z,6.40
2018-09-05T18:05:16.774Z,5.50
2018-09-05T18:07:44.070Z,7.00
2018-09-05T18:10:11.377Z,5.77
2018-09-05T18:12:38.656Z,5.97
2018-09-05T18:15:05.980Z,6.70
2018-09-05T18:17:33.396Z,11.53
2018-09-05T18:20:01.032Z,6.07
2018-09-05T18:22:28.505Z,8.30
2018-09-05T18:24:55.994Z,8.33
2018-09-05T18:27:23.268Z,9.50
2018-09-05T18:29:50.550Z,11.40
2018-09-05T18:32:17.858Z,11.97
2018-09-05T18:34:45.160Z,12.53
2018-09-05T18:37:12.419Z,17.77
2018-09-05T18:39:39.710Z,11.30
2018-09-05T18:42:07.020Z,6.20
2018-09-05T18:44:34.262Z,8.20
2018-09-05T18:47:01.549Z,9.30
2018-09-05T18:49:28.887Z,6.00
2018-09-05T18:51:56.123Z,5.70
2018-09-05T18:54:30.322Z,5.80
2018-09-05T18:56:57.839Z,5.27
2018-09-05T18:59:25.899Z,5.23
2018-09-05T19:01:53.277Z,5.60
2018-09-05T19:04:20.538Z,5.27
2018-09-05T19:06:47.868Z,5.73
2018-09-05T19:09:15.188Z,5.37
2018-09-05T19:11:42.638Z,5.93
2018-09-05T19:14:11.006Z,6.60
2018-09-05T19:16:38.317Z,6.60
2018-09-05T19:19:05.556Z,7.43
2018-09-05T19:21:33.349Z,5.60
2018-09-05T19:24:01.239Z,5.60
2018-09-05T19:26:28.594Z,4.90
2018-09-05T19:28:56.595Z,4.93
2018-09-05T19:31:23.963Z,5.43
2018-09-05T19:33:51.277Z,4.83
2018-09-05T19:36:18.572Z,5.40
2018-09-05T19:38:45.924Z,4.97
2018-09-05T19:41:13.164Z,6.27
2018-09-05T19:43:40.508Z,5.77
2018-09-05T19:46:07.780Z,6.10
2018-09-05T19:48:35.121Z,5.43
2018-09-05T19:51:02.396Z,6.33
2018-09-05T19:53:29.704Z,6.00
2018-09-05T19:55:56.973Z,5.70
2018-09-05T19:58:25.646Z,5.30
2018-09-05T20:00:53.164Z,5.10
2018-09-05T20:03:20.398Z,5.33
2018-09-05T20:05:48.004Z,5.47
2018-09-05T20:08:15.300Z,5.47
2018-09-05T20:10:42.621Z,5.83
2018-09-05T20:13:09.894Z,5.10
2018-09-05T20:15:37.506Z,5.43
2018-09-05T20:18:04.755Z,5.67
2018-09-05T20:20:32.170Z,5.77
2018-09-05T20:22:59.407Z,7.13
2018-09-05T20:25:26.705Z,5.60
2018-09-05T20:27:54.449Z,5.30
2018-09-05T20:30:21.709Z,5.93
2018-09-05T20:32:48.973Z,5.33
2018-09-05T20:35:16.205Z,5.97
2018-09-05T20:37:43.482Z,5.73
2018-09-05T20:40:10.784Z,5.13
2018-09-05T20:42:38.085Z,5.67
2018-09-05T20:45:05.676Z,6.40
2018-09-05T20:47:32.924Z,6.00
2018-09-05T20:50:00.229Z,6.27
2018-09-05T20:52:27.557Z,6.00
2018-09-05T20:54:54.803Z,6.63
2018-09-05T20:57:22.104Z,7.90
2018-09-05T20:59:49.426Z,6.97
2018-09-05T21:02:16.812Z,6.53
2018-09-05T21:04:44.118Z,7.10
2018-09-05T21:07:11.404Z,6.63
2018-09-05T21:09:38.624Z,6.10
2018-09-05T21:12:05.917Z,6.30
2018-09-05T21:14:33.148Z,5.97
2018-09-05T21:17:00.396Z,5.50
2018-09-05T21:19:27.813Z,6.03
2018-09-05T21:21:55.081Z,6.10
2018-09-05T21:24:22.344Z,6.53
2018-09-05T21:26:49.549Z,6.23
2018-09-05T21:29:16.726Z,5.90
2018-09-05T21:31:44.026Z,6.07
2018-09-05T21:34:11.233Z,5.83
2018-09-05T21:36:38.490Z,5.93
2018-09-05T21:39:07.160Z,6.73
2018-09-05T21:41:34.473Z,8.43
2018-09-05T21:44:02.739Z,8.40
2018-09-05T21:46:30.054Z,5.83
2018-09-05T21:48:57.289Z,7.37
2018-09-05T21:51:24.607Z,6.97
2018-09-05T21:53:51.943Z,6.10
2018-09-05T21:56:19.166Z,7.30
2018-09-05T21:58:46.390Z,6.70
2018-09-05T22:01:13.602Z,6.00
2018-09-05T22:03:40.888Z,6.87
2018-09-05T22:06:08.219Z,6.50
2018-09-05T22:08:35.476Z,6.60
2018-09-05T22:11:08.308Z,6.30
2018-09-05T22:13:36.243Z,6.63
2018-09-05T22:16:03.466Z,6.57
2018-09-05T22:18:30.711Z,7.17
2018-09-05T22:20:57.970Z,6.37
2018-09-05T22:23:25.224Z,6.47
2018-09-05T22:25:52.440Z,7.60
2018-09-05T22:28:19.797Z,6.40
2018-09-05T22:30:47.069Z,6.93
2018-09-05T22:33:14.362Z,6.50
2018-09-05T22:35:41.578Z,7.27
2018-09-05T22:38:08.849Z,7.00
2018-09-05T22:40:41.534Z,7.30
2018-09-05T22:43:14.518Z,7.03
2018-09-05T22:45:47.294Z,8.10
2018-09-05T22:49:24.097Z,6.73
2018-09-05T22:52:02.659Z,7.13
2018-09-05T22:56:49.755Z,7.90
2018-09-05T22:59:25.571Z,7.33
2018-09-05T23:04:03.052Z,9.67
2018-09-05T23:06:35.789Z,7.73
2018-09-05T23:09:03.577Z,7.33
2018-09-05T23:11:38.243Z,7.70
2018-09-05T23:14:11.088Z,7.63
2018-09-05T23:17:47.701Z,8.17
2018-09-05T23:20:19.446Z,7.57
2018-09-05T23:22:52.204Z,7.53
2018-09-05T23:25:19.399Z,8.70
2018-09-05T23:27:46.695Z,7.53
2018-09-05T23:30:13.897Z,7.60
2018-09-05T23:32:41.176Z,7.77
2018-09-05T23:35:08.409Z,7.63
2018-09-05T23:37:35.637Z,8.93
2018-09-05T23:40:02.867Z,8.20
2018-09-05T23:42:30.065Z,9.07
2018-09-05T23:44:57.396Z,9.33
2018-09-05T23:47:24.627Z,8.00
2018-09-05T23:49:51.874Z,8.63
2018-09-05T23:52:19.215Z,8.83
2018-09-05T23:54:46.449Z,8.77
2018-09-05T23:57:13.689Z,7.93
2018-09-05T23:59:40.943Z,9.07
